createdAt,value
2018-01-04T00:00:27.639Z,0
2018-01-04T00:01:29.684Z,0
2018-01-04T00:02:31.656Z,0
2018-01-04T00:03:33.968Z,0
2018-01-04T00:04:35.922Z,0
2018-01-04T00:05:37.993Z,0
2018-01-04T00:06:40.033Z,0
2018-01-04T00:07:42.202Z,0
2018-01-04T00:08:44.324Z,0
2018-01-04T00:09:46.414Z,0
2018-01-04T00:10:48.598Z,0
2018-01-04T00:11:50.637Z,0
2018-01-04T00:12:52.618Z,0
2018-01-04T00:13:54.626Z,0
2018-01-04T00:14:56.725Z,0
2018-01-04T00:15:58.970Z,0
2018-01-04T00:17:01.083Z,0
2018-01-04T00:18:03.132Z,0
2018-01-04T00:19:05.142Z,0
2018-01-04T00:20:07.184Z,0
2018-01-04T00:21:09.317Z,0
2018-01-04T00:22:11.306Z,0
2018-01-04T00:23:13.317Z,0
2018-01-04T00:24:15.259Z,0
2018-01-04T00:25:17.250Z,0
2018-01-04T00:26:19.142Z,0
2018-01-04T00:27:21.361Z,0
2018-01-04T00:28:23.439Z,0
2018-01-04T00:29:25.383Z,0
2018-01-04T00:30:27.304Z,0
2018-01-04T00:31:29.248Z,0
2018-01-04T00:32:31.337Z,0
2018-01-04T00:33:33.229Z,0
2018-01-04T00:34:35.253Z,0
2018-01-04T00:35:37.188Z,0
2018-01-04T00:36:39.190Z,0
2018-01-04T00:37:41.210Z,0
2018-01-04T00:38:43.170Z,0
2018-01-04T00:39:45.173Z,0
2018-01-04T00:40:47.033Z,0
2018-01-04T00:41:48.904Z,0
2018-01-04T00:42:50.879Z,0
2018-01-04T00:43:52.852Z,0
2018-01-04T00:44:54.862Z,0
2018-01-04T00:45:56.759Z,0
2018-01-04T00:46:58.698Z,0
2018-01-04T00:48:00.694Z,0
2018-01-04T00:49:02.803Z,0
2018-01-04T00:50:04.769Z,0
2018-01-04T00:51:06.731Z,0
2018-01-04T00:52:08.809Z,0
2018-01-04T00:53:10.891Z,0
2018-01-04T00:54:12.984Z,0
2018-01-04T00:55:15.080Z,0
2018-01-04T00:56:17.117Z,0
2018-01-04T00:57:19.129Z,0
2018-01-04T00:58:21.261Z,0
2018-01-04T00:59:23.388Z,0
2018-01-04T01:00:25.461Z,0
2018-01-04T01:01:27.381Z,0
2018-01-04T01:02:29.408Z,0
2018-01-04T01:03:31.631Z,0
2018-01-04T01:04:33.724Z,0
2018-01-04T01:05:35.824Z,0
2018-01-04T01:06:37.933Z,0
2018-01-04T01:07:39.837Z,0
2018-01-04T01:08:41.839Z,0
2018-01-04T01:09:43.855Z,0
2018-01-04T01:10:45.762Z,0
2018-01-04T01:11:47.810Z,0
2018-01-04T01:12:49.750Z,0
2018-01-04T01:13:51.685Z,0
2018-01-04T01:14:53.575Z,0
2018-01-04T01:15:55.544Z,0
2018-01-04T01:16:57.572Z,0
2018-01-04T01:17:59.755Z,0
2018-01-04T01:19:01.877Z,0
2018-01-04T01:20:03.808Z,0
2018-01-04T01:21:06.005Z,0
2018-01-04T01:22:07.995Z,0
2018-01-04T01:23:09.933Z,0
2018-01-04T01:24:11.927Z,0
2018-01-04T01:25:13.865Z,0
2018-01-04T01:26:15.806Z,0
2018-01-04T01:27:17.714Z,0
2018-01-04T01:28:19.690Z,0
2018-01-04T01:29:21.739Z,0
2018-01-04T01:30:23.770Z,0
2018-01-04T01:31:25.764Z,0
2018-01-04T01:32:27.746Z,0
2018-01-04T01:33:29.709Z,0
2018-01-04T01:34:31.770Z,0
2018-01-04T01:35:33.703Z,0
2018-01-04T01:36:35.670Z,0
2018-01-04T01:37:37.651Z,0
2018-01-04T01:38:39.697Z,0
2018-01-04T01:39:41.653Z,0
2018-01-04T01:40:43.705Z,0
2018-01-04T01:41:45.843Z,0
2018-01-04T01:42:47.816Z,0
2018-01-04T01:43:49.784Z,0
2018-01-04T01:44:51.709Z,0
2018-01-04T01:45:53.763Z,0
2018-01-04T01:46:55.777Z,0
2018-01-04T01:47:57.882Z,0
2018-01-04T01:48:59.771Z,0
2018-01-04T01:50:01.729Z,0
2018-01-04T01:51:03.723Z,0
2018-01-04T01:52:05.689Z,0
2018-01-04T01:53:07.595Z,0
2018-01-04T01:54:09.553Z,0
2018-01-04T01:55:11.480Z,0
2018-01-04T01:56:13.421Z,0
2018-01-04T01:57:15.346Z,0
2018-01-04T01:58:17.255Z,0
2018-01-04T01:59:19.196Z,0
2018-01-04T02:00:21.205Z,0
2018-01-04T02:01:23.355Z,0
2018-01-04T02:02:25.320Z,0
2018-01-04T02:03:27.331Z,0
2018-01-04T02:04:29.319Z,0
2018-01-04T02:05:31.467Z,0
2018-01-04T02:06:33.668Z,0
2018-01-04T02:07:35.718Z,0
2018-01-04T02:08:37.903Z,0
2018-01-04T02:09:40.042Z,0
2018-01-04T02:10:41.976Z,0
2018-01-04T02:11:44.193Z,0
2018-01-04T02:12:46.203Z,0
2018-01-04T02:13:48.542Z,0
2018-01-04T02:14:50.635Z,0
2018-01-04T02:15:53.018Z,0
2018-01-04T02:16:55.272Z,0
2018-01-04T02:17:57.265Z,0
2018-01-04T02:18:59.274Z,0
2018-01-04T02:20:01.367Z,0
2018-01-04T02:21:03.437Z,0
2018-01-04T02:22:05.439Z,0
2018-01-04T02:23:07.391Z,0
2018-01-04T02:24:09.414Z,0
2018-01-04T02:25:11.445Z,0
2018-01-04T02:26:13.385Z,0
2018-01-04T02:27:15.296Z,0
2018-01-04T02:28:17.310Z,0
2018-01-04T02:29:19.306Z,0
2018-01-04T02:30:21.308Z,0
2018-01-04T02:31:23.241Z,0
2018-01-04T02:32:25.120Z,0
2018-01-04T02:33:27.086Z,0
2018-01-04T02:34:28.978Z,0
2018-01-04T02:35:30.874Z,0
2018-01-04T02:36:32.817Z,0
2018-01-04T02:37:34.734Z,0
2018-01-04T02:38:36.636Z,0
2018-01-04T02:39:38.569Z,0
2018-01-04T02:40:40.538Z,0
2018-01-04T02:41:42.560Z,0
2018-01-04T02:42:44.522Z,0
2018-01-04T02:43:46.366Z,0
2018-01-04T02:44:48.316Z,0
2018-01-04T02:45:50.299Z,0
2018-01-04T02:46:52.252Z,0
2018-01-04T02:47:54.201Z,0
2018-01-04T02:48:56.069Z,0
2018-01-04T02:49:58.071Z,0
2018-01-04T02:51:00.030Z,0
2018-01-04T02:52:02.078Z,0
2018-01-04T02:53:04.068Z,0
2018-01-04T02:54:06.023Z,0
2018-01-04T02:55:07.937Z,0
2018-01-04T03:01:04.150Z,0
2018-01-04T03:02:05.837Z,0
2018-01-04T03:03:07.528Z,0
2018-01-04T03:04:09.240Z,0
2018-01-04T03:05:10.908Z,0
2018-01-04T03:06:12.570Z,0
2018-01-04T03:07:14.268Z,0
2018-01-04T03:08:15.990Z,0
2018-01-04T03:09:17.648Z,0
2018-01-04T03:10:19.458Z,0
2018-01-04T03:11:21.254Z,0
2018-01-04T03:12:23.132Z,0
2018-01-04T03:13:25.005Z,0
2018-01-04T03:14:26.888Z,0
2018-01-04T03:15:28.771Z,0
2018-01-04T03:16:30.671Z,0
2018-01-04T03:17:32.510Z,0
2018-01-04T03:18:34.449Z,0
2018-01-04T03:19:36.392Z,0
2018-01-04T03:20:38.278Z,0
2018-01-04T03:21:40.112Z,0
2018-01-04T03:22:42.037Z,0
2018-01-04T03:23:43.867Z,0
2018-01-04T03:24:45.753Z,0
2018-01-04T03:25:47.590Z,0
2018-01-04T03:26:49.539Z,0
2018-01-04T03:27:51.449Z,0
2018-01-04T03:28:53.322Z,0
2018-01-04T03:29:55.212Z,0
2018-01-04T03:30:57.115Z,0
2018-01-04T03:31:58.975Z,0
2018-01-04T03:33:00.880Z,0
2018-01-04T03:34:02.791Z,0
2018-01-04T03:35:04.682Z,0
2018-01-04T03:36:06.566Z,0
2018-01-04T03:37:08.526Z,0
2018-01-04T03:38:10.434Z,0
2018-01-04T03:39:12.382Z,0
2018-01-04T03:40:14.318Z,0
2018-01-04T03:41:16.132Z,0
2018-01-04T03:42:18.218Z,0
2018-01-04T03:43:20.221Z,0
2018-01-04T03:44:22.180Z,0
2018-01-04T03:45:24.252Z,0
2018-01-04T03:46:26.121Z,0
2018-01-04T03:47:28.075Z,0
2018-01-04T03:48:30.054Z,0
2018-01-04T03:49:31.977Z,0
2018-01-04T03:50:34.001Z,0
2018-01-04T03:51:35.993Z,0
2018-01-04T03:52:38.094Z,0
2018-01-04T03:53:40.139Z,0
2018-01-04T03:54:42.180Z,0
2018-01-04T03:55:44.149Z,0
2018-01-04T03:56:46.278Z,0
2018-01-04T03:57:48.773Z,0
2018-01-04T03:58:51.543Z,0
2018-01-04T03:59:53.959Z,0
2018-01-04T04:00:56.513Z,0
2018-01-04T04:01:59.467Z,0
2018-01-04T04:03:02.610Z,0
2018-01-04T04:04:05.399Z,0
2018-01-04T04:05:08.392Z,0
2018-01-04T04:06:11.228Z,0
2018-01-04T04:07:14.243Z,0
2018-01-04T04:08:17.324Z,0
2018-01-04T04:09:20.118Z,0
2018-01-04T04:10:23.132Z,0
2018-01-04T04:11:26.115Z,0
2018-01-04T04:12:28.838Z,0
2018-01-04T04:13:31.488Z,0
2018-01-04T04:14:34.372Z,0
2018-01-04T04:15:37.252Z,0
2018-01-04T04:16:39.725Z,0
2018-01-04T04:17:42.019Z,0
2018-01-04T04:18:44.799Z,0
2018-01-04T04:19:48.013Z,0
2018-01-04T04:20:50.828Z,0
2018-01-04T04:21:53.626Z,0
2018-01-04T04:22:56.935Z,0
2018-01-04T04:23:59.493Z,0
2018-01-04T04:25:02.317Z,0
2018-01-04T04:26:04.182Z,0
2018-01-04T04:27:07.008Z,0
2018-01-04T04:28:09.294Z,0
2018-01-04T04:29:11.794Z,0
2018-01-04T04:30:14.942Z,0
2018-01-04T04:31:17.843Z,0
2018-01-04T04:32:20.428Z,0
2018-01-04T04:33:23.168Z,0
2018-01-04T04:34:26.003Z,0
2018-01-04T04:35:28.723Z,0
2018-01-04T04:36:31.258Z,0
2018-01-04T04:37:33.668Z,0
2018-01-04T04:38:36.002Z,0
2018-01-04T04:39:38.356Z,0
2018-01-04T04:40:40.687Z,0
2018-01-04T04:41:43.020Z,0
2018-01-04T04:42:45.377Z,0
2018-01-04T04:43:47.813Z,0
2018-01-04T04:44:50.132Z,0
2018-01-04T04:45:52.329Z,0
2018-01-04T04:46:54.795Z,0
2018-01-04T04:47:56.940Z,0
2018-01-04T04:48:59.096Z,0
2018-01-04T04:50:01.288Z,0
2018-01-04T04:51:03.525Z,0
2018-01-04T04:52:05.776Z,0
2018-01-04T04:53:08.024Z,0
2018-01-04T04:54:10.401Z,0
2018-01-04T04:55:12.774Z,0
2018-01-04T04:56:14.968Z,0
2018-01-04T04:57:17.231Z,0
2018-01-04T04:58:19.479Z,0
2018-01-04T04:59:21.716Z,0
2018-01-04T05:00:23.901Z,0
2018-01-04T05:01:26.014Z,0
2018-01-04T05:02:28.079Z,0
2018-01-04T05:03:30.173Z,0
2018-01-04T05:04:32.201Z,0
2018-01-04T05:05:34.198Z,0
2018-01-04T05:06:36.275Z,0
2018-01-04T05:07:38.489Z,0
2018-01-04T05:08:40.675Z,0
2018-01-04T05:09:42.936Z,0
2018-01-04T05:10:44.993Z,0
2018-01-04T05:11:47.219Z,0
2018-01-04T05:12:49.350Z,0
2018-01-04T05:13:51.340Z,0
2018-01-04T05:14:53.548Z,0
2018-01-04T05:15:55.787Z,0
2018-01-04T05:16:58.054Z,0
2018-01-04T05:18:00.333Z,0
2018-01-04T05:19:02.715Z,0
2018-01-04T05:20:04.891Z,0
2018-01-04T05:21:07.137Z,0
2018-01-04T05:22:09.379Z,0
2018-01-04T05:23:11.588Z,0
2018-01-04T05:24:13.804Z,0
2018-01-04T05:25:16.108Z,0
2018-01-04T05:26:18.480Z,0
2018-01-04T05:27:20.669Z,0
2018-01-04T05:28:22.665Z,0
2018-01-04T05:29:24.483Z,0
2018-01-04T05:30:26.253Z,0
2018-01-04T05:31:28.053Z,0
2018-01-04T05:32:29.842Z,0
2018-01-04T05:33:31.610Z,0
2018-01-04T05:34:33.406Z,0
2018-01-04T05:35:35.229Z,0
2018-01-04T05:36:37.007Z,0
2018-01-04T05:37:38.747Z,0
2018-01-04T05:38:40.566Z,0
2018-01-04T05:39:42.297Z,0
2018-01-04T05:40:44.043Z,0
2018-01-04T05:41:45.860Z,0
2018-01-04T05:42:47.570Z,0
2018-01-04T05:43:49.319Z,0
2018-01-04T05:44:51.083Z,0
2018-01-04T05:45:52.859Z,0
2018-01-04T05:46:54.619Z,0
2018-01-04T05:47:56.377Z,0
2018-01-04T05:48:58.114Z,0
2018-01-04T05:49:59.887Z,0
2018-01-04T05:51:01.665Z,0
2018-01-04T05:52:03.364Z,0
2018-01-04T05:53:05.185Z,0
2018-01-04T05:54:06.955Z,0
2018-01-04T05:55:08.740Z,0
2018-01-04T05:56:10.502Z,0
2018-01-04T05:57:12.235Z,0
2018-01-04T05:58:14.023Z,0
2018-01-04T05:59:15.854Z,0
2018-01-04T06:00:17.673Z,0
2018-01-04T06:01:19.573Z,0
2018-01-04T06:02:21.428Z,0
2018-01-04T06:03:23.255Z,0
2018-01-04T06:04:25.055Z,0
2018-01-04T06:05:26.867Z,0
2018-01-04T06:06:28.668Z,0
2018-01-04T06:07:30.496Z,0
2018-01-04T06:08:32.246Z,0
2018-01-04T06:09:34.095Z,0
2018-01-04T06:10:35.866Z,0
2018-01-04T06:11:37.634Z,0
2018-01-04T06:12:39.399Z,0
2018-01-04T06:13:41.220Z,0
2018-01-04T06:14:43.128Z,0
2018-01-04T06:15:44.863Z,0
2018-01-04T06:16:46.822Z,0
2018-01-04T06:17:48.600Z,0
2018-01-04T06:18:50.390Z,0
2018-01-04T06:19:53.057Z,0
2018-01-04T06:20:54.855Z,0
2018-01-04T06:21:56.696Z,0
2018-01-04T06:22:58.484Z,0
2018-01-04T06:24:00.354Z,0
2018-01-04T06:25:02.167Z,0
2018-01-04T06:26:04.166Z,0
2018-01-04T06:27:06.339Z,0
2018-01-04T06:28:08.749Z,0
2018-01-04T06:29:10.578Z,0
2018-01-04T06:30:12.373Z,0
2018-01-04T06:31:14.191Z,0
2018-01-04T06:32:16.132Z,0
2018-01-04T06:33:17.909Z,0
2018-01-04T06:34:19.784Z,0
2018-01-04T06:35:21.576Z,0
2018-01-04T06:36:23.895Z,0
2018-01-04T06:37:25.697Z,0
2018-01-04T06:38:27.873Z,0
2018-01-04T06:39:29.727Z,0
2018-01-04T06:40:31.483Z,0
2018-01-04T06:41:33.361Z,0
2018-01-04T06:42:35.145Z,0
2018-01-04T06:43:37.072Z,0
2018-01-04T06:44:38.923Z,0
2018-01-04T06:45:40.734Z,0
2018-01-04T06:46:42.650Z,0
2018-01-04T06:47:44.416Z,0
2018-01-04T06:48:46.210Z,0
2018-01-04T06:49:48.030Z,0
2018-01-04T06:50:49.799Z,0
2018-01-04T06:51:51.591Z,0
2018-01-04T06:52:53.366Z,0
2018-01-04T06:53:55.203Z,0
2018-01-04T06:54:56.956Z,0
2018-01-04T06:55:58.717Z,4
2018-01-04T07:01:54.366Z,4
2018-01-04T07:02:56.014Z,8
2018-01-04T07:03:57.658Z,4
2018-01-04T07:04:59.298Z,4
2018-01-04T07:06:00.936Z,4
2018-01-04T07:07:02.585Z,8
2018-01-04T07:08:04.246Z,12
2018-01-04T07:09:05.910Z,12
2018-01-04T07:10:07.730Z,20
2018-01-04T07:11:09.447Z,24
2018-01-04T07:12:11.311Z,24
2018-01-04T07:13:13.079Z,24
2018-01-04T07:14:15.089Z,32
2018-01-04T07:15:16.979Z,44
2018-01-04T07:16:18.961Z,52
2018-01-04T07:17:20.850Z,56
2018-01-04T07:18:22.845Z,76
2018-01-04T07:19:24.900Z,96
2018-01-04T07:20:26.975Z,108
2018-01-04T07:21:28.853Z,108
2018-01-04T07:22:30.781Z,104
2018-01-04T07:23:32.788Z,112
2018-01-04T07:24:34.793Z,112
2018-01-04T07:25:36.826Z,132
2018-01-04T07:26:38.851Z,160
2018-01-04T07:27:40.872Z,176
2018-01-04T07:28:43.066Z,180
2018-01-04T07:29:45.080Z,160
2018-01-04T07:30:47.049Z,184
2018-01-04T07:31:49.056Z,200
2018-01-04T07:32:51.048Z,236
2018-01-04T07:33:53.135Z,304
2018-01-04T07:34:55.101Z,368
2018-01-04T07:35:57.126Z,380
2018-01-04T07:36:59.117Z,368
2018-01-04T07:38:01.237Z,360
2018-01-04T07:39:03.210Z,376
2018-01-04T07:40:05.184Z,364
2018-01-04T07:41:07.078Z,328
2018-01-04T07:42:09.006Z,380
2018-01-04T07:43:10.989Z,328
2018-01-04T07:44:12.978Z,276
2018-01-04T07:45:14.958Z,268
2018-01-04T07:46:16.863Z,272
2018-01-04T07:47:18.966Z,224
2018-01-04T07:48:21.061Z,224
2018-01-04T07:49:23.006Z,236
2018-01-04T07:50:24.971Z,264
2018-01-04T07:51:27.552Z,284
2018-01-04T07:52:29.545Z,316
2018-01-04T07:53:31.532Z,284
2018-01-04T07:54:33.468Z,316
2018-01-04T07:55:35.459Z,340
2018-01-04T07:56:38.285Z,420
2018-01-04T07:57:40.292Z,440
2018-01-04T07:58:42.273Z,464
2018-01-04T07:59:44.232Z,628
2018-01-04T08:00:46.158Z,716
2018-01-04T08:01:48.334Z,672
2018-01-04T08:02:50.308Z,616
2018-01-04T08:03:52.369Z,596
2018-01-04T08:04:54.287Z,592
2018-01-04T08:05:56.206Z,572
2018-01-04T08:06:58.223Z,412
2018-01-04T08:08:00.288Z,452
2018-01-04T08:09:02.354Z,652
2018-01-04T08:10:04.350Z,700
2018-01-04T08:11:06.464Z,704
2018-01-04T08:12:08.430Z,824
2018-01-04T08:13:10.477Z,1232
2018-01-04T08:14:12.514Z,1576
2018-01-04T08:15:14.481Z,1668
2018-01-04T08:16:16.486Z,1848
2018-01-04T08:17:18.456Z,2004
2018-01-04T08:18:20.478Z,2000
2018-01-04T08:19:22.455Z,1884
2018-01-04T08:20:24.459Z,1860
2018-01-04T08:21:26.407Z,1988
2018-01-04T08:22:28.395Z,1732
2018-01-04T08:23:30.346Z,1928
2018-01-04T08:24:32.291Z,2060
2018-01-04T08:25:34.262Z,1932
2018-01-04T08:26:36.270Z,1552
2018-01-04T08:27:38.272Z,1652
2018-01-04T08:28:40.261Z,1748
2018-01-04T08:29:42.222Z,1768
2018-01-04T08:30:44.200Z,2040
2018-01-04T08:31:46.217Z,2228
2018-01-04T08:32:48.233Z,2596
2018-01-04T08:33:50.266Z,2576
2018-01-04T08:34:52.242Z,2524
2018-01-04T08:35:54.276Z,2740
2018-01-04T08:36:56.260Z,2792
2018-01-04T08:37:58.257Z,2704
2018-01-04T08:39:00.245Z,2764
2018-01-04T08:40:02.226Z,2800
2018-01-04T08:41:04.162Z,3056
2018-01-04T08:42:06.170Z,3144
2018-01-04T08:43:08.246Z,3188
2018-01-04T08:44:10.254Z,3512
2018-01-04T08:45:12.263Z,3700
2018-01-04T08:46:14.214Z,3804
2018-01-04T08:47:16.187Z,3832
2018-01-04T08:48:18.136Z,3864
2018-01-04T08:49:20.197Z,4104
2018-01-04T08:50:22.236Z,4340
2018-01-04T08:51:24.217Z,4248
2018-01-04T08:52:26.201Z,3892
2018-01-04T08:53:28.146Z,3872
2018-01-04T08:54:30.136Z,4028
2018-01-04T08:55:32.109Z,4128
2018-01-04T08:56:34.102Z,4192
2018-01-04T08:57:36.110Z,3936
2018-01-04T08:58:38.090Z,3972
2018-01-04T08:59:40.114Z,4336
2018-01-04T09:00:42.089Z,3964
2018-01-04T09:01:44.110Z,3832
2018-01-04T09:02:46.049Z,4072
2018-01-04T09:03:48.018Z,3652
2018-01-04T09:04:50.012Z,3720
2018-01-04T09:05:52.036Z,4112
2018-01-04T09:06:54.076Z,3916
2018-01-04T09:07:56.022Z,3892
2018-01-04T09:08:57.938Z,4672
2018-01-04T09:09:59.946Z,4312
2018-01-04T09:11:01.975Z,3960
2018-01-04T09:12:04.039Z,3384
2018-01-04T09:13:06.029Z,4076
2018-01-04T09:14:07.935Z,4220
2018-01-04T09:15:09.897Z,3720
2018-01-04T09:16:12.060Z,2960
2018-01-04T09:17:14.129Z,3456
2018-01-04T09:18:16.179Z,3332
2018-01-04T09:19:18.210Z,4164
2018-01-04T09:20:20.175Z,3976
2018-01-04T09:21:22.214Z,4368
2018-01-04T09:22:24.143Z,3844
2018-01-04T09:23:26.668Z,3252
2018-01-04T09:24:28.643Z,3908
2018-01-04T09:25:30.607Z,3720
2018-01-04T09:26:32.572Z,3156
2018-01-04T09:27:34.562Z,2820
2018-01-04T09:28:36.625Z,2772
2018-01-04T09:29:38.619Z,2188
2018-01-04T09:30:40.616Z,2872
2018-01-04T09:31:42.690Z,3408
2018-01-04T09:32:44.630Z,3248
2018-01-04T09:33:46.491Z,2864
2018-01-04T09:34:48.533Z,2760
2018-01-04T09:35:50.444Z,4120
2018-01-04T09:36:52.492Z,4888
2018-01-04T09:37:54.662Z,5016
2018-01-04T09:38:56.627Z,5796
2018-01-04T09:39:58.536Z,5324
2018-01-04T09:41:00.396Z,3904
2018-01-04T09:42:02.118Z,3844
2018-01-04T09:43:03.881Z,4168
2018-01-04T09:44:05.659Z,4460
2018-01-04T09:45:07.444Z,3908
2018-01-04T09:46:09.209Z,4368
2018-01-04T09:47:11.115Z,4000
2018-01-04T09:48:13.027Z,4452
2018-01-04T09:49:14.806Z,3812
2018-01-04T09:50:16.628Z,3956
2018-01-04T09:51:18.440Z,4440
2018-01-04T09:52:20.256Z,4692
2018-01-04T09:53:22.020Z,4876
2018-01-04T09:54:23.824Z,5456
2018-01-04T09:55:25.672Z,5372
2018-01-04T09:56:27.458Z,5280
2018-01-04T09:57:29.276Z,4544
2018-01-04T09:58:31.119Z,4408
2018-01-04T09:59:32.919Z,3992
2018-01-04T10:00:34.787Z,3708
2018-01-04T10:01:36.676Z,3096
2018-01-04T10:02:38.614Z,2528
2018-01-04T10:03:40.591Z,2328
2018-01-04T10:04:42.518Z,2216
2018-01-04T10:05:44.428Z,2004
2018-01-04T10:06:46.544Z,1852
2018-01-04T10:07:48.652Z,1768
2018-01-04T10:08:50.668Z,2008
2018-01-04T10:09:52.680Z,2036
2018-01-04T10:10:54.586Z,2192
2018-01-04T10:11:56.649Z,2644
2018-01-04T10:12:58.588Z,2932
2018-01-04T10:14:00.496Z,2976
2018-01-04T10:15:02.454Z,2796
2018-01-04T10:16:04.369Z,2864
2018-01-04T10:17:06.290Z,2976
2018-01-04T10:18:08.299Z,2724
2018-01-04T10:19:10.290Z,2376
2018-01-04T10:20:12.299Z,2328
2018-01-04T10:21:14.267Z,2368
2018-01-04T10:22:16.245Z,2444
2018-01-04T10:23:18.205Z,2400
2018-01-04T10:24:20.164Z,2592
2018-01-04T10:25:22.145Z,3060
2018-01-04T10:26:24.155Z,2956
2018-01-04T10:27:26.135Z,2768
2018-01-04T10:28:28.151Z,3024
2018-01-04T10:29:30.078Z,3480
2018-01-04T10:30:32.053Z,3896
2018-01-04T10:31:33.954Z,3724
2018-01-04T10:32:35.930Z,4316
2018-01-04T10:33:37.936Z,4900
2018-01-04T10:34:39.952Z,4768
2018-01-04T10:35:41.754Z,4976
2018-01-04T10:36:43.608Z,4600
2018-01-04T10:37:45.425Z,4680
2018-01-04T10:38:47.308Z,4532
2018-01-04T10:39:49.204Z,4336
2018-01-04T10:40:50.939Z,4444
2018-01-04T10:41:52.844Z,3984
2018-01-04T10:42:54.805Z,3680
2018-01-04T10:43:56.597Z,3820
2018-01-04T10:44:58.494Z,4336
2018-01-04T10:46:00.394Z,3900
2018-01-04T10:47:02.347Z,4200
2018-01-04T10:48:04.217Z,4812
2018-01-04T10:49:06.284Z,4748
2018-01-04T10:50:08.180Z,4200
2018-01-04T10:51:10.108Z,4052
2018-01-04T10:52:12.180Z,4540
2018-01-04T10:53:14.301Z,4264
2018-01-04T10:54:16.413Z,4652
2018-01-04T10:55:18.550Z,4844
2018-01-04T11:01:23.479Z,4964
2018-01-04T11:02:25.352Z,4504
2018-01-04T11:03:27.097Z,4436
2018-01-04T11:04:29.041Z,4492
2018-01-04T11:05:31.112Z,4132
2018-01-04T11:06:33.120Z,4008
2018-01-04T11:07:35.219Z,4656
2018-01-04T11:08:37.262Z,5628
2018-01-04T11:09:39.409Z,5156
2018-01-04T11:10:41.401Z,4052
2018-01-04T11:11:43.560Z,4068
2018-01-04T11:12:45.530Z,4740
2018-01-04T11:13:47.462Z,5008
2018-01-04T11:14:49.785Z,4820
2018-01-04T11:15:52.102Z,4616
2018-01-04T11:16:53.975Z,4916
2018-01-04T11:17:56.027Z,4844
2018-01-04T11:18:58.093Z,4520
2018-01-04T11:20:00.316Z,4880
2018-01-04T11:21:03.234Z,4552
2018-01-04T11:22:05.546Z,4048
2018-01-04T11:23:07.918Z,4036
2018-01-04T11:24:11.026Z,4780
2018-01-04T11:25:13.524Z,4856
2018-01-04T11:26:16.055Z,4828
2018-01-04T11:27:18.596Z,6024
2018-01-04T11:28:20.998Z,6580
2018-01-04T11:29:23.480Z,6204
2018-01-04T11:30:25.705Z,5572
2018-01-04T11:31:27.818Z,5232
2018-01-04T11:32:29.859Z,5492
2018-01-04T11:33:32.067Z,5852
2018-01-04T11:34:34.208Z,5624
2018-01-04T11:35:36.349Z,5744
2018-01-04T11:36:38.451Z,6124
2018-01-04T11:37:40.568Z,6576
2018-01-04T11:38:42.753Z,6528
2018-01-04T11:39:44.821Z,6808
2018-01-04T11:40:47.146Z,7104
2018-01-04T11:41:49.506Z,7288
2018-01-04T11:42:51.714Z,7492
2018-01-04T11:43:53.740Z,7932
2018-01-04T11:44:55.805Z,8104
2018-01-04T11:45:57.918Z,8272
2018-01-04T11:47:00.150Z,8592
2018-01-04T11:48:02.141Z,8060
2018-01-04T11:49:04.188Z,8468
2018-01-04T11:50:06.322Z,8752
2018-01-04T11:51:08.297Z,8928
2018-01-04T11:52:10.443Z,8800
2018-01-04T11:53:12.624Z,8776
2018-01-04T11:54:14.552Z,8196
2018-01-04T11:55:16.660Z,8160
2018-01-04T11:56:19.694Z,8676
2018-01-04T11:57:21.621Z,8900
2018-01-04T11:58:23.605Z,8568
2018-01-04T11:59:25.638Z,8080
2018-01-04T12:00:27.653Z,7396
2018-01-04T12:01:29.635Z,6948
2018-01-04T12:02:31.681Z,6492
2018-01-04T12:03:33.718Z,6080
2018-01-04T12:04:35.799Z,5828
2018-01-04T12:05:37.698Z,6092
2018-01-04T12:06:39.662Z,6316
2018-01-04T12:07:41.608Z,6600
2018-01-04T12:08:43.872Z,6484
2018-01-04T12:09:45.962Z,6040
2018-01-04T12:10:48.025Z,5424
2018-01-04T12:11:50.046Z,5064
2018-01-04T12:12:51.999Z,5304
2018-01-04T12:13:53.947Z,5416
2018-01-04T12:14:55.848Z,4880
2018-01-04T12:15:57.903Z,4648
2018-01-04T12:17:00.037Z,4708
2018-01-04T12:18:02.021Z,4420
2018-01-04T12:19:04.173Z,4916
2018-01-04T12:20:06.477Z,5720
2018-01-04T12:21:08.459Z,5776
2018-01-04T12:22:10.364Z,5624
2018-01-04T12:23:12.308Z,5604
2018-01-04T12:24:14.330Z,5788
2018-01-04T12:25:16.314Z,5792
2018-01-04T12:26:18.278Z,5992
2018-01-04T12:27:20.137Z,6020
2018-01-04T12:28:21.943Z,5956
2018-01-04T12:29:23.915Z,6128
2018-01-04T12:30:25.836Z,6060
2018-01-04T12:31:27.788Z,5824
2018-01-04T12:32:29.762Z,5608
2018-01-04T12:33:31.848Z,5392
2018-01-04T12:34:33.863Z,5248
2018-01-04T12:35:35.906Z,4992
2018-01-04T12:36:38.006Z,4896
2018-01-04T12:37:40.088Z,4832
2018-01-04T12:38:42.293Z,4872
2018-01-04T12:39:44.604Z,5004
2018-01-04T12:40:46.636Z,4952
2018-01-04T12:41:49.007Z,4508
2018-01-04T12:42:51.232Z,4480
2018-01-04T12:43:53.344Z,4536
2018-01-04T12:44:55.563Z,4512
2018-01-04T12:45:57.882Z,4408
2018-01-04T12:47:00.085Z,4700
2018-01-04T12:48:02.411Z,5212
2018-01-04T12:49:04.416Z,5096
2018-01-04T12:50:06.429Z,4680
2018-01-04T12:51:08.463Z,4244
2018-01-04T12:52:10.484Z,3908
2018-01-04T12:53:12.507Z,4028
2018-01-04T12:54:14.643Z,4588
2018-01-04T12:55:16.659Z,4504
2018-01-04T12:56:18.698Z,4976
2018-01-04T12:57:20.860Z,5752
2018-01-04T12:58:22.869Z,6116
2018-01-04T12:59:24.835Z,6396
2018-01-04T13:00:26.841Z,6680
2018-01-04T13:01:28.769Z,6840
2018-01-04T13:02:30.795Z,7168
2018-01-04T13:03:32.765Z,7968
2018-01-04T13:04:34.716Z,7992
2018-01-04T13:05:36.722Z,7808
2018-01-04T13:06:38.713Z,7368
2018-01-04T13:07:40.655Z,6724
2018-01-04T13:08:42.716Z,6612
2018-01-04T13:09:44.697Z,6892
2018-01-04T13:10:46.737Z,6836
2018-01-04T13:11:48.747Z,6488
2018-01-04T13:12:50.705Z,5776
2018-01-04T13:13:52.715Z,5248
2018-01-04T13:14:54.770Z,4832
2018-01-04T13:15:56.622Z,4452
2018-01-04T13:16:58.574Z,3888
2018-01-04T13:18:00.689Z,3576
2018-01-04T13:19:02.617Z,3580
2018-01-04T13:20:04.513Z,3572
2018-01-04T13:21:06.418Z,3340
2018-01-04T13:22:08.400Z,3216
2018-01-04T13:23:10.363Z,3196
2018-01-04T13:24:12.209Z,3488
2018-01-04T13:25:14.156Z,3532
2018-01-04T13:26:16.090Z,3308
2018-01-04T13:27:17.970Z,3348
2018-01-04T13:28:19.985Z,3216
2018-01-04T13:29:21.915Z,2936
2018-01-04T13:30:23.833Z,2488
2018-01-04T13:31:25.703Z,2300
2018-01-04T13:32:27.669Z,2380
2018-01-04T13:33:29.578Z,2440
2018-01-04T13:34:31.511Z,2276
2018-01-04T13:35:33.432Z,1724
2018-01-04T13:36:35.418Z,1472
2018-01-04T13:37:37.348Z,1596
2018-01-04T13:38:39.260Z,1796
2018-01-04T13:39:41.258Z,2024
2018-01-04T13:40:43.232Z,2252
2018-01-04T13:41:45.194Z,1856
2018-01-04T13:42:47.163Z,1596
2018-01-04T13:43:49.337Z,1812
2018-01-04T13:44:51.347Z,1872
2018-01-04T13:45:53.331Z,1684
2018-01-04T13:46:55.387Z,1840
2018-01-04T13:47:57.339Z,2096
2018-01-04T13:48:59.398Z,2000
2018-01-04T13:50:01.347Z,1944
2018-01-04T13:51:03.232Z,1904
2018-01-04T13:52:05.256Z,1884
2018-01-04T13:53:07.248Z,1792
2018-01-04T13:54:09.348Z,1680
2018-01-04T13:55:11.423Z,1648
2018-01-04T13:56:13.376Z,1500
2018-01-04T13:57:15.265Z,1384
2018-01-04T13:58:17.346Z,1452
2018-01-04T13:59:19.393Z,1520
2018-01-04T14:00:21.499Z,1656
2018-01-04T14:01:23.508Z,1852
2018-01-04T14:02:25.531Z,1924
2018-01-04T14:03:27.700Z,1928
2018-01-04T14:04:29.714Z,2112
2018-01-04T14:05:31.721Z,2088
2018-01-04T14:06:33.732Z,2000
2018-01-04T14:07:35.825Z,2240
2018-01-04T14:08:37.876Z,2348
2018-01-04T14:09:40.211Z,2148
2018-01-04T14:10:42.408Z,1828
2018-01-04T14:11:44.814Z,1620
2018-01-04T14:12:46.928Z,1472
2018-01-04T14:13:49.153Z,1400
2018-01-04T14:14:51.436Z,1296
2018-01-04T14:15:53.707Z,1076
2018-01-04T14:16:55.963Z,1028
2018-01-04T14:17:58.144Z,1044
2018-01-04T14:19:00.269Z,996
2018-01-04T14:20:02.716Z,1068
2018-01-04T14:21:04.802Z,1148
2018-01-04T14:22:06.909Z,1044
2018-01-04T14:23:09.181Z,964
2018-01-04T14:24:11.437Z,840
2018-01-04T14:25:13.507Z,860
2018-01-04T14:26:15.871Z,952
2018-01-04T14:27:17.978Z,1032
2018-01-04T14:28:20.235Z,1064
2018-01-04T14:29:22.434Z,1016
2018-01-04T14:30:24.520Z,1048
2018-01-04T14:31:26.700Z,1012
2018-01-04T14:32:28.817Z,992
2018-01-04T14:33:30.982Z,976
2018-01-04T14:34:33.520Z,880
2018-01-04T14:35:36.000Z,820
2018-01-04T14:36:38.078Z,792
2018-01-04T14:37:40.583Z,728
2018-01-04T14:38:42.638Z,684
2018-01-04T14:39:45.010Z,716
2018-01-04T14:40:47.030Z,736
2018-01-04T14:41:49.197Z,740
2018-01-04T14:42:51.293Z,728
2018-01-04T14:43:53.442Z,600
2018-01-04T14:44:55.491Z,528
2018-01-04T14:45:57.644Z,492